Latest Weather Observations for Shepparton

IDV60801

Issued at 8:05 pm EST Thursday 2 October 2014 (issued every 30 minutes, with the page automatically refreshed every 10 minutes)

About weather observations | Map of weather stations | Latest weather observations for VIC | Other Formats
Station Details ID: 081125 Name: SHEPPARTON AIRPORT Lat: -36.43 Lon: 145.39 Height: 113.9 m
Data from the previous 72 hours. | See also: Recent months at Shepparton
Date/Time
EST
Temp
°C
App
Temp
°C
Dew
Point
Rel
Hum
%
Delta-T
°C
Wind Press
QNH
hPa
Press
MSL
hPa
Rain
since 9 am
mm
Dir
 
Spd
km/h
Gust
km/h
Spd
kts
Gust
kts
02/08:00pm 11.4 9.5 7.7 78 1.8 S 7 7 4 4 1023.2 1023.1 0.0
02/07:30pm 11.8 9.6 7.9 77 1.9 S 9 11 5 6 1023.0 1022.9 0.0
02/07:00pm 12.6 10.1 8.1 74 2.2 S 11 11 6 6 1022.7 1022.6 0.0
02/06:30pm 13.9 11.8 8.3 69 2.8 S 9 13 5 7 1022.6 1022.5 0.0
02/06:00pm 15.3 12.4 8.3 63 3.5 S 13 19 7 10 1022.3 1022.2 0.0
02/05:30pm 16.6 14.5 8.3 58 4.2 S 9 17 5 9 1022.1 1022.0 0.0
02/05:00pm 18.0 15.1 8.0 52 5.1 W 13 19 7 10 1021.9 1021.8 0.0
02/04:30pm 18.2 14.5 7.9 51 5.3 WSW 17 24 9 13 1021.9 1021.8 0.0
02/04:00pm 18.3 15.1 8.3 52 5.2 WSW 15 22 8 12 1022.0 1021.9 0.0
02/03:30pm 17.7 13.9 7.4 51 5.2 S 17 20 9 11 1022.1 1022.0 0.0
02/03:00pm 17.9 13.7 7.6 51 5.2 W 19 24 10 13 1022.3 1022.2 0.0
02/02:30pm 16.4 12.7 6.2 51 5.0 SSW 15 20 8 11 1022.7 1022.6 0.0
02/02:00pm 16.1 13.3 7.1 55 4.5 SW 11 20 6 11 1023.0 1022.9 0.0
02/01:30pm 16.4 13.3 7.1 54 4.6 WSW 13 17 7 9 1023.3 1023.2 0.0
02/01:00pm 15.2 11.6 6.7 57 4.1 WSW 15 24 8 13 1023.8 1023.8 0.0
02/12:30pm 14.9 10.5 7.5 61 3.7 WSW 20 24 11 13 1024.1 1024.1 0.0
02/12:00pm 14.7 10.4 6.8 59 3.8 SW 19 28 10 15 1024.3 1024.3 0.0
02/11:30am 14.3 10.0 6.9 61 3.6 SW 19 24 10 13 1024.6 1024.6 0.0
02/11:00am 14.8 10.3 6.9 59 3.9 S 20 24 11 13 1024.9 1024.9 0.0
02/10:30am 14.0 9.3 5.9 58 3.9 SW 20 30 11 16 1025.0 1025.0 0.0
02/10:00am 13.5 9.7 5.9 60 3.6 SW 15 24 8 13 1025.0 1025.0 0.0
02/09:30am 12.8 8.6 5.5 61 3.4 WSW 17 20 9 11 1025.0 1025.0 0.0
02/09:00am 12.5 8.4 6.3 66 2.9 WSW 17 22 9 12 1025.1 1025.1 0.0
02/08:30am 11.5 8.4 7.2 75 2.1 WSW 13 22 7 12 1025.2 1025.2 -
02/08:00am 9.8 6.3 7.1 83 1.3 SW 15 20 8 11 1025.4 1025.4 -
02/07:30am 8.5 5.6 6.3 86 1.0 WSW 11 15 6 8 1025.2 1025.2 -
02/07:00am 7.2 4.5 5.8 91 0.6 WSW 9 13 5 7 1025.0 1025.0 -
02/06:30am 5.1 3.9 4.5 96 0.3 CALM 0 0 0 0 1024.9 1024.9 -
02/06:00am 3.4 0.5 2.7 95 0.3 WSW 7 9 4 5 1024.6 1024.6 -
02/05:30am 3.8 1.0 3.2 96 0.2 SW 7 9 4 5 1024.4 1024.4 -
02/05:00am 3.5 1.9 2.6 94 0.4 CALM 0 0 0 0 1024.3 1024.3 -
02/04:30am 4.9 2.4 3.9 93 0.4 S 6 7 3 4 1024.3 1024.3 -
02/04:00am 5.4 2.4 4.2 92 0.5 SSW 9 13 5 7 1024.2 1024.2 -
02/03:30am 5.4 2.4 4.1 91 0.6 WSW 9 11 5 6 1024.1 1024.1 -
02/03:00am 5.8 2.5 4.4 91 0.6 SW 11 13 6 7 1024.3 1024.3 0.0
02/02:30am 6.0 3.4 4.2 88 0.8 SSW 7 9 4 5 1024.4 1024.4 -
02/02:00am 6.5 3.6 4.5 87 0.9 SSW 9 13 5 7 1024.6 1024.6 -
02/01:30am 6.4 2.7 4.4 87 0.9 SSW 13 17 7 9 1024.9 1024.9 -
02/01:00am 6.5 3.2 4.5 87 0.9 SW 11 13 6 7 1025.1 1025.1 -
02/12:30am 6.8 3.6 5.0 88 0.8 SW 11 13 6 7 1025.3 1025.3 -
02/12:00am 6.8 3.9 4.6 86 1.0 SW 9 11 5 6 1025.2 1025.2 -
 
Date/Time
EST
Temp
°C
App
Temp
°C
Dew
Point
Rel
Hum
%
Delta-T
°C
Wind Press
QNH
hPa
Press
MSL
hPa
Rain
since 9 am
mm
Dir
 
Spd
km/h
Gust
km/h
Spd
kts
Gust
kts
01/11:30pm 7.9 6.4 4.8 81 1.4 S 2 7 1 4 1025.3 1025.3 -
01/11:00pm 8.5 7.4 5.3 80 1.4 CALM 0 6 0 3 1025.4 1025.4 -
01/10:30pm 8.7 5.2 5.3 79 1.5 S 13 17 7 9 1025.3 1025.3 -
01/10:00pm 8.2 5.0 5.3 82 1.3 SSW 11 15 6 8 1025.4 1025.4 -
01/09:30pm 7.1 4.1 4.2 82 1.3 SSW 9 11 5 6 1025.4 1025.4 -
01/09:00pm 8.8 7.7 5.2 78 1.6 CALM 0 0 0 0 1025.1 1025.1 0.0
01/08:30pm 8.8 5.9 4.8 76 1.8 SSE 9 13 5 7 1025.0 1025.0 -
01/08:00pm 10.0 7.1 4.8 70 2.3 WSW 9 11 5 6 1024.5 1024.5 -
01/07:30pm 10.8 8.3 4.5 65 2.8 WSW 7 9 4 5 1024.2 1024.2 -
01/07:00pm 11.5 8.5 4.3 61 3.2 S 9 11 5 6 1023.8 1023.8 -
01/06:30pm 13.3 10.0 4.5 55 4.1 S 11 15 6 8 1023.6 1023.5 -
01/06:00pm 14.1 11.2 4.7 53 4.4 SSW 9 11 5 6 1023.5 1023.4 -
01/05:30pm 14.3 11.2 3.7 49 4.8 S 9 15 5 8 1023.3 1023.2 -
01/05:00pm 14.6 10.8 3.7 48 5.0 S 13 19 7 10 1023.2 1023.1 -
01/04:30pm 15.3 10.9 2.8 43 5.7 SSW 15 22 8 12 1023.2 1023.1 -
01/04:00pm 15.5 10.7 2.7 42 5.8 SSW 17 24 9 13 1023.0 1022.9 -
01/03:30pm 15.3 10.7 1.8 40 6.0 SSW 15 22 8 12 1022.7 1022.6 -
01/03:00pm 15.9 11.4 2.0 39 6.2 S 15 26 8 14 1022.8 1022.7 0.0
01/02:30pm 16.1 10.3 2.2 39 6.2 SW 22 32 12 17 1023.2 1023.1 -
01/02:00pm 16.6 10.5 3.0 40 6.2 S 24 33 13 18 1023.3 1023.2 -
01/01:30pm 15.8 10.2 1.2 37 6.4 WSW 20 26 11 14 1023.2 1023.1 -
01/01:00pm 14.3 7.9 1.2 41 5.6 S 24 35 13 19 1023.6 1023.5 -
01/12:30pm 14.6 10.1 2.2 43 5.5 SW 15 28 8 15 1023.9 1023.9 -
01/12:00pm 14.8 9.5 3.0 45 5.3 S 20 30 11 16 1024.1 1024.1 -
01/11:30am 13.7 9.0 3.2 49 4.7 SSW 17 22 9 12 1024.3 1024.3 0.0
01/11:00am 13.5 6.6 2.7 48 4.8 S 28 37 15 20 1024.4 1024.4 0.0
01/10:30am 12.8 6.7 2.9 51 4.4 S 24 44 13 24 1024.4 1024.4 0.0
01/10:00am 12.5 7.3 3.7 55 3.9 SSW 20 28 11 15 1024.2 1024.2 0.0
01/09:30am 11.2 7.2 4.9 65 2.9 WSW 15 22 8 12 1024.1 1024.2 0.0
01/09:00am 9.8 5.5 5.4 74 2.0 WSW 17 20 9 11 1023.8 1023.9 0.0
01/08:30am 9.4 5.0 4.8 73 2.1 WSW 17 22 9 12 1023.3 1023.4 0.0
01/08:00am 8.1 3.7 4.5 78 1.6 W 17 24 9 13 1022.9 1023.0 0.0
01/07:30am 6.6 2.8 4.1 84 1.1 W 13 19 7 10 1022.4 1022.5 0.0
01/07:00am 5.2 1.3 3.5 89 0.7 W 13 17 7 9 1022.1 1022.2 0.0
01/06:30am 3.5 -0.6 2.5 93 0.4 W 13 17 7 9 1021.7 1021.7 0.0
01/06:00am 2.8 -1.0 1.6 92 0.5 W 11 13 6 7 1021.3 1021.3 0.0
01/05:30am 2.8 -1.0 1.8 93 0.4 W 11 15 6 8 1020.7 1020.7 0.0
01/05:00am 2.9 -0.6 1.4 90 0.6 W 9 11 5 6 1020.1 1020.1 0.0
01/04:30am 3.7 -0.1 1.9 88 0.7 W 11 15 6 8 1019.8 1019.8 0.0
01/04:00am 4.4 -0.1 2.4 87 0.8 W 15 19 8 10 1019.1 1019.2 0.0
01/03:30am 4.5 0.7 2.0 84 1.0 W 11 13 6 7 1018.8 1018.9 0.0
01/03:00am 5.9 1.1 2.5 79 1.4 W 17 22 9 12 1018.5 1018.6 0.0
01/02:30am 6.2 1.4 2.7 78 1.5 WSW 17 24 9 13 1018.1 1018.2 0.0
01/02:00am 6.4 1.6 2.7 77 1.5 WSW 17 22 9 12 1017.8 1017.9 0.0
01/01:30am 6.9 3.2 2.2 72 1.9 WSW 11 15 6 8 1017.5 1017.6 0.0
01/01:00am 8.3 3.0 2.1 65 2.6 WSW 19 28 10 15 1017.3 1017.4 0.0
01/12:30am 8.3 3.5 2.5 67 2.4 SW 17 30 9 16 1017.2 1017.3 0.0
01/12:00am 8.1 4.1 3.0 70 2.2 SW 13 19 7 10 1016.8 1016.9 0.0
 
Date/Time
EST
Temp
°C
App
Temp
°C
Dew
Point
Rel
Hum
%
Delta-T
°C
Wind Press
QNH
hPa
Press
MSL
hPa
Rain
since 9 am
mm
Dir
 
Spd
km/h
Gust
km/h
Spd
kts
Gust
kts
30/11:30pm 8.4 4.5 3.3 70 2.2 WSW 13 19 7 10 1016.3 1016.4 0.0
30/11:00pm 8.9 4.6 3.5 69 2.3 SW 15 24 8 13 1015.9 1016.0 0.0
30/10:30pm 10.0 5.1 4.0 66 2.7 SW 19 26 10 14 1015.5 1015.6 0.0
30/10:00pm 9.7 5.2 4.1 68 2.5 SW 17 20 9 11 1015.1 1015.2 0.0
30/09:30pm 9.8 6.1 4.4 69 2.4 SW 13 17 7 9 1014.7 1014.8 0.0
30/09:00pm 10.4 6.0 4.5 67 2.7 SW 17 22 9 12 1014.4 1014.4 0.0
30/08:30pm 10.8 6.0 5.6 70 2.4 SSW 20 28 11 15 1013.9 1013.9 0.0
30/08:00pm 11.2 6.7 6.9 75 2.1 S 20 28 11 15 1013.6 1013.6 0.0
30/07:30pm 11.1 6.5 8.0 81 1.5 S 22 28 12 15 1012.7 1012.7 0.0
30/07:00pm 11.6 6.9 9.2 85 1.2 SSW 24 35 13 19 1012.0 1012.0 0.0
30/06:30pm 13.1 6.7 8.6 74 2.3 SSW 32 39 17 21 1010.8 1010.8 0.0
30/06:11pm 14.9 8.1 9.3 69 2.9 S 35 41 19 22 1010.4 1010.4 0.0
30/06:00pm 15.9 7.5 8.9 63 3.6 WSW 43 67 23 36 1010.4 1010.4 0.0
30/05:30pm 17.4 9.3 8.8 57 4.5 WSW 41 65 22 35 1008.9 1009.0 0.0
30/05:00pm 20.6 10.0 6.9 41 7.0 W 52 70 28 38 1007.5 1007.6 0.0
30/04:30pm 23.1 15.4 3.6 28 9.5 W 33 57 18 31 1006.4 1006.4 0.0
30/04:26pm 23.0 15.9 3.5 28 9.5 W 30 57 16 31 1006.5 1006.5 0.0
30/04:00pm 22.7 16.5 6.0 34 8.5 WNW 28 41 15 22 1006.1 1006.1 0.0
30/03:30pm 23.6 15.7 6.0 32 9.0 WNW 37 57 20 31 1006.2 1006.2 0.0
30/03:00pm 24.0 15.9 5.4 30 9.5 WNW 37 57 20 31 1006.5 1006.5 0.0
30/02:30pm 23.5 16.4 6.3 33 8.8 NW 33 54 18 29 1006.8 1006.8 0.0
30/02:00pm 23.5 16.4 6.3 33 8.9 WNW 33 54 18 29 1007.3 1007.4 0.0
30/01:30pm 23.1 16.7 6.8 35 8.4 NW 30 50 16 27 1008.1 1008.2 0.0
30/01:00pm 22.6 16.9 8.3 40 7.6 NW 28 52 15 28 1008.7 1008.8 0.0
30/12:30pm 21.8 15.5 9.0 44 6.8 NW 32 46 17 25 1009.1 1009.2 0.0
30/12:00pm 21.4 16.4 9.6 47 6.4 N 26 39 14 21 1009.4 1009.5 0.0
30/11:30am 20.5 16.3 9.7 50 5.8 N 22 32 12 17 1010.0 1010.1 0.0
30/11:00am 19.6 15.9 9.5 52 5.4 N 19 28 10 15 1010.8 1010.8 0.0
30/10:30am 18.9 16.1 9.9 56 4.8 N 15 20 8 11 1011.6 1011.6 0.0
30/10:00am 18.0 16.0 10.1 60 4.2 NNW 11 19 6 10 1012.1 1012.1 0.0
30/09:30am 17.4 14.6 10.1 62 3.9 WNW 15 20 8 11 1012.6 1012.6 0.0
30/09:00am 16.8 14.4 10.2 65 3.5 W 13 20 7 11 1013.0 1013.0 0.0
30/08:30am 15.6 13.1 9.7 68 3.1 W 13 17 7 9 1013.3 1013.3 0.0
30/08:00am 14.5 12.8 9.7 73 2.5 W 9 13 5 7 1013.2 1013.2 0.0
30/07:30am 13.5 12.0 9.2 75 2.2 W 7 13 4 7 1013.2 1013.2 0.0
30/07:00am 11.3 10.5 9.6 89 0.9 NNW 4 9 2 5 1013.0 1013.0 0.0
30/06:30am 9.2 7.1 8.1 93 0.5 N 9 11 5 6 1012.8 1012.8 0.0
30/06:00am 8.3 7.0 7.5 95 0.4 NNW 4 7 2 4 1012.7 1012.7 0.0
30/05:30am 8.7 6.5 7.8 94 0.4 NW 9 13 5 7 1012.3 1012.3 0.0
30/05:00am 8.8 6.5 7.6 92 0.6 NW 9 15 5 8 1012.0 1012.0 0.0
30/04:30am 9.2 7.3 7.6 90 0.8 N 7 9 4 5 1011.5 1011.5 0.0
30/04:00am 9.0 7.2 7.8 92 0.6 N 7 11 4 6 1011.4 1011.4 0.0
30/03:30am 8.7 6.5 7.9 95 0.4 NNE 9 13 5 7 1011.4 1011.4 0.0
30/03:00am 8.4 6.8 8.1 98 0.1 NE 6 7 3 4 1011.6 1011.6 0.0
30/02:30am 7.5 6.4 7.1 97 0.2 NE 2 6 1 3 1012.0 1012.0 0.0
30/02:00am 8.3 7.8 7.7 96 0.3 CALM 0 0 0 0 1012.2 1012.2 0.0
30/01:30am 8.3 7.3 7.5 95 0.4 NE 2 6 1 3 1012.5 1012.5 0.0
30/01:00am 8.4 7.8 7.6 95 0.4 CALM 0 0 0 0 1012.8 1012.8 0.0
30/12:30am 8.9 8.4 8.0 94 0.4 CALM 0 0 0 0 1013.1 1013.1 0.0
30/12:00am 9.1 8.6 7.9 92 0.6 CALM 0 0 0 0 1013.4 1013.4 0.0
 
Date/Time
EST
Temp
°C
App
Temp
°C
Dew
Point
Rel
Hum
%
Delta-T
°C
Wind Press
QNH
hPa
Press
MSL
hPa
Rain
since 9 am
mm
Dir
 
Spd
km/h
Gust
km/h
Spd
kts
Gust
kts
29/11:30pm 10.0 9.8 8.9 93 0.5 CALM 0 4 0 2 1013.6 1013.6 0.0
29/11:00pm 9.8 8.4 8.9 94 0.4 NE 6 7 3 4 1013.8 1013.8 0.0
29/10:30pm 9.8 9.5 8.6 92 0.6 CALM 0 0 0 0 1014.1 1014.1 0.0
29/10:00pm 10.5 10.3 8.9 90 0.8 CALM 0 4 0 2 1014.3 1014.3 0.0
29/09:30pm 11.0 9.7 9.3 89 0.9 NNE 6 7 3 4 1014.4 1014.4 0.0
29/09:00pm 11.4 11.1 10.1 92 0.7 NNE 2 7 1 4 1014.4 1014.4 0.0
29/08:30pm 11.7 11.6 9.6 87 1.1 CALM 0 0 0 0 1014.5 1014.6 0.0

Other Formats:

Comma delimited format used in spreadsheet applications
http://www.bom.gov.au/fwo/IDV60801/IDV60801.94875.axf

JavaScript Object Notation format (JSON) in row-major order
http://www.bom.gov.au/fwo/IDV60801/IDV60801.94875.json